createdAt,value
2018-08-06T00:00:52.319Z,100963.31
2018-08-06T00:03:20.376Z,100963.09
2018-08-06T00:05:48.439Z,100965.86
2018-08-06T00:08:16.492Z,100969.81
2018-08-06T00:10:44.528Z,100965.20
2018-08-06T00:13:12.732Z,100960.39
2018-08-06T00:15:40.772Z,100965.79
2018-08-06T00:18:08.833Z,100961.55
2018-08-06T00:20:36.893Z,100961.70
2018-08-06T00:23:05.123Z,100965.02
2018-08-06T00:25:33.165Z,100963.16
2018-08-06T00:28:01.195Z,100960.38
2018-08-06T00:30:29.246Z,100955.91
2018-08-06T00:32:57.299Z,100957.08
2018-08-06T00:35:25.718Z,100958.22
2018-08-06T00:37:53.771Z,100959.94
2018-08-06T00:40:22.065Z,100957.30
2018-08-06T00:42:50.576Z,100960.09
2018-08-06T00:45:19.995Z,100949.97
2018-08-06T00:47:48.558Z,100952.35
2018-08-06T00:50:16.605Z,100946.77
2018-08-06T00:52:44.660Z,100945.48
2018-08-06T00:55:15.815Z,100949.84
2018-08-06T00:57:43.977Z,100946.84
2018-08-06T01:00:14.732Z,100943.20
2018-08-06T01:02:42.895Z,100939.80
2018-08-06T01:05:12.149Z,100938.98
2018-08-06T01:07:40.539Z,100933.55
2018-08-06T01:10:11.699Z,100934.00
2018-08-06T01:12:40.497Z,100933.70
2018-08-06T01:15:09.906Z,100929.93
2018-08-06T01:17:37.990Z,100931.69
2018-08-06T01:20:07.740Z,100930.91
2018-08-06T01:22:35.823Z,100926.52
2018-08-06T01:25:04.071Z,100919.55
2018-08-06T01:27:32.168Z,100917.57
2018-08-06T01:30:00.241Z,100914.39
2018-08-06T01:32:28.285Z,100915.78
2018-08-06T01:34:56.311Z,100910.43
2018-08-06T01:37:24.587Z,100910.43
2018-08-06T01:39:52.611Z,100912.59
2018-08-06T01:42:20.652Z,100914.52
2018-08-06T01:44:48.969Z,100912.68
2018-08-06T01:47:17.011Z,100916.01
2018-08-06T01:49:45.081Z,100907.83
2018-08-06T01:52:13.175Z,100903.59
2018-08-06T01:54:41.239Z,100906.20
2018-08-06T01:57:09.297Z,100900.81
2018-08-06T01:59:37.356Z,100897.98
2018-08-06T02:02:05.980Z,100893.53
2018-08-06T02:04:34.271Z,100891.14
2018-08-06T02:07:02.319Z,100890.34
2018-08-06T02:09:30.354Z,100887.56
2018-08-06T02:11:58.417Z,100885.76
2018-08-06T02:14:26.470Z,100884.27
2018-08-06T02:16:54.637Z,100879.86
2018-08-06T02:19:22.679Z,100880.81
2018-08-06T02:21:50.717Z,100875.41
2018-08-06T02:24:19.243Z,100878.96
2018-08-06T02:26:47.285Z,100875.98
2018-08-06T02:29:15.361Z,100871.59
2018-08-06T02:31:43.404Z,100877.69
2018-08-06T02:34:11.450Z,100875.48
2018-08-06T02:36:39.770Z,100874.84
2018-08-06T02:39:09.460Z,100871.79
2018-08-06T02:41:37.534Z,100872.94
2018-08-06T02:44:05.638Z,100874.16
2018-08-06T02:46:33.690Z,100872.18
2018-08-06T02:54:44.325Z,100864.88
2018-08-06T02:57:12.674Z,100867.66
2018-08-06T02:59:40.711Z,100863.66
2018-08-06T03:02:08.763Z,100869.94
2018-08-06T03:04:36.802Z,100862.15
2018-08-06T03:07:05.236Z,100859.73
2018-08-06T03:09:33.294Z,100858.34
2018-08-06T03:12:01.382Z,100856.36
2018-08-06T03:14:29.423Z,100860.31
2018-08-06T03:16:57.484Z,100848.55
2018-08-06T03:19:25.739Z,100848.36
2018-08-06T03:21:53.837Z,100843.75
2018-08-06T03:24:22.403Z,100846.97
2018-08-06T03:26:50.718Z,100852.36
2018-08-06T03:29:18.779Z,100854.12
2018-08-06T03:31:46.828Z,100854.88
2018-08-06T03:34:14.921Z,100855.62
2018-08-06T03:36:42.992Z,100850.37
2018-08-06T03:39:11.849Z,100853.69
2018-08-06T03:41:39.887Z,100850.83
2018-08-06T03:44:08.301Z,100847.94
2018-08-06T03:46:36.487Z,100845.49
2018-08-06T03:49:04.635Z,100850.19
2018-08-06T03:51:33.061Z,100854.16
2018-08-06T03:54:01.131Z,100851.69
2018-08-06T03:56:29.203Z,100860.36
2018-08-06T03:58:57.267Z,100857.69
2018-08-06T04:01:25.325Z,100848.70
2018-08-06T04:03:53.386Z,100851.48
2018-08-06T04:06:21.442Z,100844.77
2018-08-06T04:11:24.214Z,100840.14
2018-08-06T04:13:52.270Z,100841.81
2018-08-06T04:16:20.352Z,100837.90
2018-08-06T04:18:48.391Z,100831.42
2018-08-06T04:21:16.451Z,100835.88
2018-08-06T04:23:44.516Z,100839.30
2018-08-06T04:26:12.560Z,100840.16
2018-08-06T04:28:41.012Z,100841.56
2018-08-06T04:31:09.086Z,100843.41
2018-08-06T04:33:37.130Z,100839.26
2018-08-06T04:36:05.577Z,100837.11
2018-08-06T04:38:33.681Z,100841.98
2018-08-06T04:41:01.699Z,100841.86
2018-08-06T04:43:29.738Z,100839.91
2018-08-06T04:45:57.805Z,100830.20
2018-08-06T04:48:25.889Z,100827.63
2018-08-06T04:50:54.584Z,100827.41
2018-08-06T04:53:22.994Z,100833.39
2018-08-06T04:55:51.087Z,100820.63
2018-08-06T04:58:19.127Z,100820.06
2018-08-06T05:00:47.183Z,100820.94
2018-08-06T05:03:15.223Z,100816.84
2018-08-06T05:05:43.284Z,100821.32
2018-08-06T05:08:11.303Z,100816.90
2018-08-06T05:10:39.352Z,100816.61
2018-08-06T05:13:07.450Z,100808.09
2018-08-06T05:15:35.475Z,100809.48
2018-08-06T05:18:03.813Z,100810.95
2018-08-06T05:20:31.863Z,100816.58
2018-08-06T05:22:59.899Z,100808.45
2018-08-06T05:25:27.985Z,100801.78
2018-08-06T05:27:56.036Z,100800.12
2018-08-06T05:30:24.458Z,100808.56
2018-08-06T05:32:52.523Z,100801.90
2018-08-06T05:35:20.620Z,100804.58
2018-08-06T05:37:48.815Z,100806.60
2018-08-06T05:40:16.891Z,100807.55
2018-08-06T05:42:44.939Z,100803.77
2018-08-06T05:45:13.016Z,100802.69
2018-08-06T05:47:41.119Z,100800.30
2018-08-06T05:50:11.501Z,100797.27
2018-08-06T05:52:39.547Z,100794.78
2018-08-06T05:55:08.508Z,100797.72
2018-08-06T05:57:36.596Z,100798.27
2018-08-06T06:00:10.186Z,100804.76
2018-08-06T06:02:38.324Z,100804.37
2018-08-06T06:05:06.496Z,100810.69
2018-08-06T06:07:34.620Z,100812.60
2018-08-06T06:10:02.771Z,100809.42
2018-08-06T06:12:30.877Z,100818.36
2018-08-06T06:14:59.246Z,100810.83
2018-08-06T06:17:27.334Z,100812.87
2018-08-06T06:19:55.408Z,100808.33
2018-08-06T06:22:23.521Z,100805.57
2018-08-06T06:24:51.614Z,100803.03
2018-08-06T06:27:19.683Z,100797.41
2018-08-06T06:29:47.763Z,100794.11
2018-08-06T06:32:15.828Z,100794.43
2018-08-06T06:34:44.210Z,100796.33
2018-08-06T06:37:12.207Z,100785.95
2018-08-06T06:39:40.559Z,100781.23
2018-08-06T06:42:08.688Z,100786.76
2018-08-06T06:44:36.788Z,100784.58
2018-08-06T06:47:04.865Z,100778.72
2018-08-06T06:49:32.944Z,100786.59
2018-08-06T06:52:01.094Z,100786.63
2018-08-06T06:54:29.221Z,100782.43
2018-08-06T06:56:57.645Z,100775.84
2018-08-06T06:59:25.839Z,100773.60
2018-08-06T07:01:53.889Z,100772.63
2018-08-06T07:04:22.297Z,100767.61
2018-08-06T07:06:50.482Z,100768.16
2018-08-06T07:09:18.508Z,100770.95
2018-08-06T07:11:46.600Z,100771.63
2018-08-06T07:14:14.669Z,100764.88
2018-08-06T07:16:42.727Z,100759.27
2018-08-06T07:19:10.816Z,100759.84
2018-08-06T07:21:38.875Z,100751.61
2018-08-06T07:24:07.295Z,100756.44
2018-08-06T07:26:35.568Z,100759.06
2018-08-06T07:29:03.664Z,100748.35
2018-08-06T07:31:31.891Z,100742.59
2018-08-06T07:33:59.947Z,100745.54
2018-08-06T07:36:28.045Z,100739.90
2018-08-06T07:38:56.112Z,100739.36
2018-08-06T07:41:24.178Z,100735.46
2018-08-06T07:43:52.263Z,100735.27
2018-08-06T07:46:20.376Z,100734.78
2018-08-06T07:48:48.428Z,100736.64
2018-08-06T07:51:16.928Z,100723.22
2018-08-06T07:53:45.052Z,100728.41
2018-08-06T07:56:13.109Z,100724.16
2018-08-06T07:58:41.192Z,100726.70
2018-08-06T08:01:09.271Z,100725.13
2018-08-06T08:03:37.383Z,100718.56
2018-08-06T08:06:05.538Z,100717.77
2018-08-06T08:08:33.602Z,100719.50
2018-08-06T08:11:01.704Z,100716.70
2018-08-06T08:13:29.835Z,100718.61
2018-08-06T08:15:57.962Z,100712.06
2018-08-06T08:18:26.071Z,100710.28
2018-08-06T08:20:54.225Z,100709.62
2018-08-06T08:23:22.404Z,100710.16
2018-08-06T08:25:50.491Z,100706.56
2018-08-06T08:28:18.763Z,100697.77
2018-08-06T08:30:46.867Z,100697.13
2018-08-06T08:33:14.943Z,100688.78
2018-08-06T08:35:43.100Z,100688.27
2018-08-06T08:38:11.411Z,100686.83
2018-08-06T08:40:39.535Z,100687.63
2018-08-06T08:43:07.662Z,100683.86
2018-08-06T08:45:35.740Z,100681.84
2018-08-06T08:48:03.920Z,100675.83
2018-08-06T08:50:32.219Z,100677.25
2018-08-06T08:53:00.332Z,100672.00
2018-08-06T08:55:28.431Z,100661.78
2018-08-06T08:57:56.526Z,100658.36
2018-08-06T09:00:24.588Z,100667.13
2018-08-06T09:02:53.217Z,100658.73
2018-08-06T09:05:21.493Z,100663.41
2018-08-06T09:07:50.243Z,100660.34
2018-08-06T09:10:19.179Z,100658.22
2018-08-06T09:12:47.491Z,100656.98
2018-08-06T09:15:20.831Z,100650.81
2018-08-06T09:17:48.882Z,100638.34
2018-08-06T09:20:16.928Z,100638.23
2018-08-06T09:22:45.838Z,100635.52
2018-08-06T09:25:14.285Z,100642.52
2018-08-06T09:27:43.585Z,100644.47
2018-08-06T09:30:14.635Z,100631.61
2018-08-06T09:32:44.356Z,100640.45
2018-08-06T09:35:13.375Z,100640.28
2018-08-06T09:37:42.747Z,100633.86
2018-08-06T09:40:13.767Z,100630.05
2018-08-06T09:42:42.498Z,100621.40
2018-08-06T09:45:13.447Z,100621.80
2018-08-06T09:47:42.841Z,100610.45
2018-08-06T09:50:11.851Z,100604.77
2018-08-06T09:52:40.342Z,100593.90
2018-08-06T09:55:10.603Z,100593.22
2018-08-06T09:57:38.798Z,100591.16
2018-08-06T10:00:14.703Z,100591.88
2018-08-06T10:02:42.824Z,100599.02
2018-08-06T10:05:10.848Z,100594.23
2018-08-06T10:07:38.909Z,100586.93
2018-08-06T10:10:09.179Z,100592.39
2018-08-06T10:12:37.279Z,100579.87
2018-08-06T10:15:05.960Z,100582.20
2018-08-06T10:17:34.263Z,100588.10
2018-08-06T10:20:02.844Z,100577.23
2018-08-06T10:22:30.962Z,100575.91
2018-08-06T10:24:59.049Z,100568.28
2018-08-06T10:27:27.111Z,100567.99
2018-08-06T10:29:55.608Z,100567.43
2018-08-06T10:32:23.691Z,100556.56
2018-08-06T10:34:51.723Z,100551.84
2018-08-06T10:37:19.913Z,100552.34
2018-08-06T10:39:47.999Z,100547.73
2018-08-06T10:42:16.064Z,100543.45
2018-08-06T10:44:44.443Z,100538.29
2018-08-06T10:47:13.171Z,100534.69
2018-08-06T10:49:41.355Z,100528.12
2018-08-06T10:52:09.399Z,100523.98
2018-08-06T10:54:37.636Z,100521.64
2018-08-06T10:57:06.255Z,100512.91
2018-08-06T10:59:34.861Z,100510.36
2018-08-06T11:02:02.954Z,100512.19
2018-08-06T11:04:31.091Z,100511.80
2018-08-06T11:06:59.190Z,100506.69
2018-08-06T11:09:27.221Z,100499.06
2018-08-06T11:11:55.517Z,100503.77
2018-08-06T11:14:23.748Z,100492.50
2018-08-06T11:16:51.877Z,100489.14
2018-08-06T11:19:19.924Z,100487.39
2018-08-06T11:21:48.172Z,100479.09
2018-08-06T11:24:16.266Z,100479.02
2018-08-06T11:26:49.077Z,100461.89
2018-08-06T11:29:17.200Z,100463.31
2018-08-06T11:31:45.638Z,100459.07
2018-08-06T11:34:13.788Z,100459.43
2018-08-06T11:36:42.155Z,100459.22
2018-08-06T11:39:11.391Z,100449.31
2018-08-06T11:41:39.508Z,100446.89
2018-08-06T11:44:08.558Z,100447.36
2018-08-06T11:46:36.839Z,100442.20
2018-08-06T11:49:05.160Z,100446.25
2018-08-06T11:51:33.255Z,100443.70
2018-08-06T11:54:01.412Z,100434.47
2018-08-06T11:56:29.530Z,100430.64
2018-08-06T11:58:57.624Z,100435.89
2018-08-06T12:01:25.884Z,100429.53
2018-08-06T12:03:54.263Z,100422.98
2018-08-06T12:06:22.337Z,100421.31
2018-08-06T12:08:50.408Z,100418.62
2018-08-06T12:11:18.434Z,100424.56
2018-08-06T12:13:46.505Z,100415.17
2018-08-06T12:16:14.515Z,100417.55
2018-08-06T12:18:42.625Z,100417.89
2018-08-06T12:21:10.897Z,100421.19
2018-08-06T12:23:38.993Z,100418.42
2018-08-06T12:26:07.115Z,100412.64
2018-08-06T12:28:35.495Z,100411.06
2018-08-06T12:31:03.568Z,100411.75
2018-08-06T12:33:31.668Z,100397.08
2018-08-06T12:35:59.719Z,100396.46
2018-08-06T12:38:39.332Z,100395.31
2018-08-06T12:41:07.388Z,100388.42
2018-08-06T12:43:35.447Z,100391.91
2018-08-06T12:46:05.477Z,100393.88
2018-08-06T12:48:33.565Z,100396.23
2018-08-06T12:51:01.651Z,100391.11
2018-08-06T12:53:29.739Z,100399.39
2018-08-06T12:55:57.830Z,100397.53
2018-08-06T12:58:26.059Z,100386.77
2018-08-06T13:00:54.100Z,100380.91
2018-08-06T13:03:22.155Z,100373.71
2018-08-06T13:05:50.238Z,100371.50
2018-08-06T13:08:18.336Z,100369.39
2018-08-06T13:10:46.416Z,100370.02
2018-08-06T13:13:14.463Z,100374.95
2018-08-06T13:15:42.565Z,100363.31
2018-08-06T13:18:10.642Z,100355.12
2018-08-06T13:20:38.923Z,100356.91
2018-08-06T13:23:07.132Z,100355.82
2018-08-06T13:25:35.248Z,100345.36
2018-08-06T13:28:03.376Z,100342.93
2018-08-06T13:30:31.435Z,100340.98
2018-08-06T13:32:59.525Z,100344.78
2018-08-06T13:35:27.770Z,100330.94
2018-08-06T13:37:56.376Z,100332.67
2018-08-06T13:40:24.448Z,100335.34
2018-08-06T13:42:52.536Z,100329.82
2018-08-06T13:45:20.656Z,100331.40
2018-08-06T13:47:48.727Z,100336.22
2018-08-06T13:50:16.919Z,100324.75
2018-08-06T13:52:45.043Z,100317.61
2018-08-06T13:55:13.672Z,100314.25
2018-08-06T13:57:42.165Z,100309.17
2018-08-06T14:00:17.203Z,100293.27
2018-08-06T14:02:45.519Z,100305.63
2018-08-06T14:05:14.885Z,100293.95
2018-08-06T14:07:43.912Z,100292.38
2018-08-06T14:10:11.969Z,100284.09
2018-08-06T14:12:40.074Z,100288.30
2018-08-06T14:15:10.040Z,100286.80
2018-08-06T14:17:38.971Z,100283.03
2018-08-06T14:20:07.477Z,100277.53
2018-08-06T14:22:38.306Z,100273.94
2018-08-06T14:25:07.006Z,100266.73
2018-08-06T14:27:35.095Z,100267.69
2018-08-06T14:30:03.260Z,100259.87
2018-08-06T14:32:31.307Z,100264.84
2018-08-06T14:34:59.486Z,100262.35
2018-08-06T14:37:27.594Z,100255.22
2018-08-06T14:39:55.845Z,100250.03
2018-08-06T14:42:23.972Z,100252.14
2018-08-06T14:44:52.176Z,100247.03
2018-08-06T14:47:20.235Z,100253.89
2018-08-06T14:49:48.339Z,100249.29
2018-08-06T14:52:16.449Z,100256.57
2018-08-06T14:54:44.846Z,100255.91
2018-08-06T14:57:12.944Z,100243.36
2018-08-06T14:59:41.023Z,100224.20
2018-08-06T15:02:09.076Z,100246.22
2018-08-06T15:04:37.176Z,100239.45
2018-08-06T15:07:05.315Z,100239.30
2018-08-06T15:09:33.381Z,100236.59
2018-08-06T15:12:02.516Z,100230.78
2018-08-06T15:14:30.892Z,100223.16
2018-08-06T15:16:59.015Z,100221.85
2018-08-06T15:19:27.031Z,100222.56
2018-08-06T15:21:55.511Z,100219.70
2018-08-06T15:24:24.047Z,100206.12
2018-08-06T15:26:52.247Z,100212.98
2018-08-06T15:29:20.305Z,100217.95
2018-08-06T15:31:48.496Z,100212.65
2018-08-06T15:34:16.742Z,100201.23
2018-08-06T15:36:44.902Z,100200.24
2018-08-06T15:39:15.055Z,100200.92
2018-08-06T15:41:43.994Z,100202.61
2018-08-06T15:44:12.442Z,100193.52
2018-08-06T15:46:40.585Z,100192.83
2018-08-06T15:49:08.675Z,100191.92
2018-08-06T15:51:38.500Z,100193.77
2018-08-06T15:57:03.728Z,100182.61
2018-08-06T15:59:32.513Z,100183.63
2018-08-06T16:02:04.670Z,100178.97
2018-08-06T16:04:34.321Z,100172.73
2018-08-06T16:07:40.554Z,100177.02
2018-08-06T16:10:13.962Z,100175.47
2018-08-06T16:12:43.293Z,100168.98
2018-08-06T16:15:18.206Z,100164.81
2018-08-06T16:17:47.540Z,100167.21
2018-08-06T16:20:20.184Z,100163.56
2018-08-06T16:22:51.516Z,100161.50
2018-08-06T16:25:19.637Z,100159.25
2018-08-06T16:27:47.712Z,100157.56
2018-08-06T16:30:17.274Z,100152.50
2018-08-06T16:32:46.442Z,100153.40
2018-08-06T16:35:15.233Z,100149.50
2018-08-06T16:37:43.335Z,100153.74
2018-08-06T16:40:12.004Z,100145.41
2018-08-06T16:42:40.161Z,100144.50
2018-08-06T16:45:08.927Z,100139.17
2018-08-06T16:47:38.010Z,100133.17
2018-08-06T16:50:07.387Z,100137.19
2018-08-06T16:52:35.491Z,100132.50
2018-08-06T16:55:04.726Z,100136.36
2018-08-06T16:57:33.160Z,100126.34
2018-08-06T17:00:01.285Z,100125.37
2018-08-06T17:02:29.961Z,100128.30
2018-08-06T17:04:58.151Z,100125.67
2018-08-06T17:07:26.222Z,100124.39
2018-08-06T17:09:54.264Z,100124.28
2018-08-06T17:12:22.444Z,100122.52
2018-08-06T17:14:50.531Z,100126.42
2018-08-06T17:17:18.591Z,100121.02
2018-08-06T17:19:46.744Z,100122.33
2018-08-06T17:22:15.159Z,100125.19
2018-08-06T17:24:43.757Z,100118.98
2018-08-06T17:27:12.809Z,100120.91
2018-08-06T17:29:41.003Z,100119.85
2018-08-06T17:32:09.183Z,100110.36
2018-08-06T17:34:37.576Z,100108.41
2018-08-06T17:37:05.649Z,100112.62
2018-08-06T17:39:33.679Z,100110.55
2018-08-06T17:42:01.775Z,100112.19
2018-08-06T17:44:30.881Z,100111.70
2018-08-06T17:46:58.957Z,100112.34
2018-08-06T17:49:27.304Z,100112.41
2018-08-06T17:51:56.231Z,100116.05
2018-08-06T17:54:24.359Z,100114.73
2018-08-06T17:56:52.387Z,100111.31
2018-08-06T17:59:20.531Z,100110.78
2018-08-06T18:01:48.566Z,100110.58
2018-08-06T18:04:17.187Z,100110.53
2018-08-06T18:06:45.350Z,100106.94
2018-08-06T18:09:13.423Z,100114.16
2018-08-06T18:11:41.511Z,100109.68
2018-08-06T18:14:09.568Z,100113.90
2018-08-06T18:16:37.633Z,100112.15
2018-08-06T18:19:05.796Z,100110.15
2018-08-06T18:21:33.983Z,100112.30
2018-08-06T18:24:02.071Z,100113.00
2018-08-06T18:26:30.123Z,100113.45
2018-08-06T18:28:58.163Z,100114.84
2018-08-06T18:31:26.247Z,100118.47
2018-08-06T18:33:54.292Z,100118.77
2018-08-06T18:36:22.392Z,100116.41
2018-08-06T18:38:50.455Z,100120.53
2018-08-06T18:41:19.490Z,100114.34
2018-08-06T18:43:47.563Z,100115.27
2018-08-06T18:46:15.623Z,100122.02
2018-08-06T18:48:43.675Z,100118.22
2018-08-06T18:51:11.700Z,100126.23
2018-08-06T18:53:39.755Z,100124.91
2018-08-06T18:56:07.787Z,100124.47
2018-08-06T18:58:36.007Z,100092.22
2018-08-06T19:01:04.101Z,100128.47
2018-08-06T19:03:32.147Z,100127.14
2018-08-06T19:06:00.272Z,100130.55
2018-08-06T19:08:28.392Z,100131.48
2018-08-06T19:10:56.551Z,100132.05
2018-08-06T19:13:30.241Z,100132.81
2018-08-06T19:15:58.295Z,100133.11
2018-08-06T19:18:31.709Z,100141.41
2018-08-06T19:20:59.793Z,100132.81
2018-08-06T19:23:28.072Z,100140.79
2018-08-06T19:25:56.168Z,100137.58
2018-08-06T19:28:24.243Z,100137.28
2018-08-06T19:30:57.647Z,100142.50
2018-08-06T19:33:25.807Z,100145.36
2018-08-06T19:35:53.888Z,100139.56
2018-08-06T19:38:22.105Z,100145.87
2018-08-06T19:40:50.185Z,100145.44
2018-08-06T19:43:24.298Z,100142.48
2018-08-06T19:45:52.340Z,100146.38
2018-08-06T19:48:20.418Z,100149.88
2018-08-06T19:50:48.533Z,100150.50
2018-08-06T19:53:16.590Z,100148.47
2018-08-06T19:55:50.368Z,100151.75
2018-08-06T19:58:18.546Z,100154.44
2018-08-06T20:00:46.605Z,100150.31
2018-08-06T20:03:14.663Z,100154.85
2018-08-06T20:05:42.711Z,100151.87
2018-08-06T20:08:10.743Z,100150.12
2018-08-06T20:10:38.782Z,100149.16
2018-08-06T20:13:06.807Z,100148.38
2018-08-06T20:15:34.851Z,100157.94
2018-08-06T20:18:03.011Z,100147.56
2018-08-06T20:20:31.309Z,100140.74
2018-08-06T20:22:59.350Z,100147.02
2018-08-06T20:25:27.400Z,100151.36
2018-08-06T20:27:55.474Z,100147.25
2018-08-06T20:30:23.835Z,100149.56
2018-08-06T20:32:51.945Z,100155.52
2018-08-06T20:35:20.640Z,100151.05
2018-08-06T20:37:48.654Z,100149.27
2018-08-06T20:40:16.720Z,100157.69
2018-08-06T20:42:45.988Z,100148.06
2018-08-06T20:45:16.648Z,100149.73
2018-08-06T20:47:45.035Z,100147.16
2018-08-06T20:50:16.240Z,100144.14
2018-08-06T20:52:45.189Z,100152.25
2018-08-06T20:55:13.267Z,100145.12
2018-08-06T20:57:41.879Z,100149.45
2018-08-06T21:00:15.045Z,100144.67
2018-08-06T21:02:43.287Z,100147.29
2018-08-06T21:05:11.158Z,100157.55
2018-08-06T21:07:40.080Z,100150.35
2018-08-06T21:10:09.572Z,100158.55
2018-08-06T21:12:38.059Z,100155.33
2018-08-06T21:15:06.578Z,100155.30
2018-08-06T21:17:34.637Z,100153.50
2018-08-06T21:20:03.248Z,100154.38
2018-08-06T21:22:31.528Z,100154.48
2018-08-06T21:24:59.562Z,100158.81
2018-08-06T21:27:27.707Z,100156.72
2018-08-06T21:29:56.093Z,100154.66
2018-08-06T21:32:24.140Z,100153.62
2018-08-06T21:34:52.182Z,100151.98
2018-08-06T21:37:20.218Z,100148.48
2018-08-06T21:39:48.299Z,100149.38
2018-08-06T21:42:16.338Z,100144.94
2018-08-06T21:44:44.484Z,100148.47
2018-08-06T21:47:12.452Z,100148.86
2018-08-06T21:49:40.503Z,100145.02
2018-08-06T21:52:08.732Z,100144.90
2018-08-06T21:54:36.759Z,100143.26
2018-08-06T21:57:04.834Z,100146.02
2018-08-06T21:59:33.009Z,100140.95
2018-08-06T22:02:01.107Z,100141.48
2018-08-06T22:04:29.152Z,100141.94
2018-08-06T22:06:57.181Z,100142.95
2018-08-06T22:09:25.245Z,100136.45
2018-08-06T22:11:53.631Z,100132.27
2018-08-06T22:14:21.729Z,100130.90
2018-08-06T22:16:49.767Z,100134.42
2018-08-06T22:19:17.852Z,100141.30
2018-08-06T22:21:46.211Z,100132.95
2018-08-06T22:24:14.263Z,100140.50
2018-08-06T22:26:42.296Z,100131.15
2018-08-06T22:29:10.354Z,100135.19
2018-08-06T22:31:38.415Z,100131.33
2018-08-06T22:34:06.436Z,100126.95
2018-08-06T22:36:34.489Z,100126.06
2018-08-06T22:39:02.527Z,100127.48
2018-08-06T22:41:30.568Z,100132.40
2018-08-06T22:43:58.767Z,100125.66
2018-08-06T22:46:26.889Z,100119.26
2018-08-06T22:48:55.026Z,100125.05
2018-08-06T22:51:23.059Z,100126.61
2018-08-06T22:53:51.092Z,100125.22
2018-08-06T22:56:19.131Z,100123.97
2018-08-06T22:58:47.152Z,100126.09
2018-08-06T23:01:15.215Z,100120.10
2018-08-06T23:03:43.295Z,100127.80
2018-08-06T23:06:11.356Z,100123.06
2018-08-06T23:08:39.453Z,100119.20
2018-08-06T23:11:07.971Z,100123.21
2018-08-06T23:13:36.012Z,100128.30
2018-08-06T23:16:04.043Z,100119.16
2018-08-06T23:18:32.443Z,100120.20
2018-08-06T23:21:00.501Z,100120.73
2018-08-06T23:23:28.552Z,100121.94
2018-08-06T23:25:56.614Z,100123.48
2018-08-06T23:28:24.656Z,100115.93
2018-08-06T23:30:52.699Z,100112.33
2018-08-06T23:33:20.763Z,100109.97
2018-08-06T23:35:48.967Z,100109.52
2018-08-06T23:38:17.001Z,100105.23
2018-08-06T23:40:45.053Z,100103.20
2018-08-06T23:43:13.094Z,100102.13
2018-08-06T23:45:41.132Z,100113.41
2018-08-06T23:48:09.231Z,100103.59
2018-08-06T23:50:37.256Z,100102.19
2018-08-06T23:53:05.755Z,100099.87
2018-08-06T23:55:33.759Z,100095.00
2018-08-06T23:58:01.812Z,100090.16
